createdAt,value
2023-06-28T00:00:22.244Z,2.65
2023-06-28T00:02:48.865Z,2.33
2023-06-28T00:05:15.442Z,2.50
2023-06-28T00:07:42.043Z,2.67
2023-06-28T00:10:09.131Z,2.20
2023-06-28T00:12:35.730Z,2.50
2023-06-28T00:15:02.419Z,2.47
2023-06-28T00:17:29.069Z,2.38
2023-06-28T00:19:56.630Z,2.80
2023-06-28T00:22:23.802Z,2.47
2023-06-28T00:24:50.664Z,2.55
2023-06-28T00:27:17.257Z,2.30
2023-06-28T00:29:43.789Z,2.75
2023-06-28T00:32:10.430Z,2.22
2023-06-28T00:34:37.064Z,2.53
2023-06-28T00:37:03.889Z,2.45
2023-06-28T00:39:30.467Z,2.97
2023-06-28T00:41:57.003Z,2.38
2023-06-28T00:44:23.562Z,2.42
2023-06-28T00:46:50.770Z,2.83
2023-06-28T00:49:17.695Z,2.78
2023-06-28T00:51:45.282Z,3.10
2023-06-28T00:54:11.884Z,2.65
2023-06-28T00:56:38.904Z,2.50
2023-06-28T00:59:06.537Z,2.47
2023-06-28T01:01:33.320Z,2.70
2023-06-28T01:03:59.879Z,2.63
2023-06-28T01:06:29.885Z,3.00
2023-06-28T01:08:56.548Z,2.47
2023-06-28T01:11:23.128Z,2.53
2023-06-28T01:13:50.103Z,2.72
2023-06-28T01:16:16.738Z,2.97
2023-06-28T01:18:43.436Z,2.97
2023-06-28T01:21:12.525Z,2.53
2023-06-28T01:23:39.450Z,2.88
2023-06-28T01:26:06.455Z,2.67
2023-06-28T01:28:33.528Z,3.05
2023-06-28T01:31:00.350Z,2.70
2023-06-28T01:33:27.389Z,2.70
2023-06-28T01:35:54.012Z,2.45
2023-06-28T01:38:21.282Z,2.97
2023-06-28T01:40:51.565Z,2.63
2023-06-28T01:43:18.437Z,3.10
2023-06-28T01:45:45.039Z,2.80
2023-06-28T01:48:12.250Z,2.90
2023-06-28T01:50:39.476Z,3.00
2023-06-28T01:53:06.111Z,3.28
2023-06-28T01:55:32.709Z,3.30
2023-06-28T01:57:59.256Z,3.03
2023-06-28T02:00:26.257Z,2.88
2023-06-28T02:02:53.065Z,2.85
2023-06-28T02:05:20.484Z,2.72
2023-06-28T02:07:47.233Z,2.88
2023-06-28T02:10:13.802Z,2.50
2023-06-28T02:12:40.370Z,2.53
2023-06-28T02:15:07.360Z,2.63
2023-06-28T02:17:33.924Z,2.92
2023-06-28T02:20:00.490Z,3.03
2023-06-28T02:22:27.712Z,3.70
2023-06-28T02:24:54.276Z,2.85
2023-06-28T02:27:20.779Z,2.90
2023-06-28T02:29:47.472Z,3.15
2023-06-28T02:32:14.166Z,3.80
2023-06-28T02:34:40.709Z,2.83
2023-06-28T02:37:07.237Z,2.80
2023-06-28T02:39:33.748Z,2.75
2023-06-28T02:42:00.376Z,2.95
2023-06-28T02:44:26.927Z,3.13
2023-06-28T02:46:53.493Z,3.72
2023-06-28T02:49:20.150Z,2.90
2023-06-28T02:51:46.735Z,3.30
2023-06-28T02:54:13.357Z,3.20
2023-06-28T02:56:39.946Z,2.92
2023-06-28T02:59:06.448Z,2.95
2023-06-28T03:01:33.095Z,3.75
2023-06-28T03:03:59.822Z,3.05
2023-06-28T03:06:26.458Z,2.83
2023-06-28T03:08:53.024Z,3.10
2023-06-28T03:11:19.557Z,3.03
2023-06-28T03:13:46.210Z,2.75
2023-06-28T03:16:12.829Z,2.97
2023-06-28T03:18:39.414Z,2.92
2023-06-28T03:21:05.929Z,3.13
2023-06-28T03:23:32.571Z,3.30
2023-06-28T03:25:59.601Z,3.55
2023-06-28T03:28:26.166Z,3.10
2023-06-28T03:30:53.021Z,3.10
2023-06-28T03:33:19.663Z,2.90
2023-06-28T03:35:46.211Z,3.33
2023-06-28T03:38:12.797Z,3.85
2023-06-28T03:40:39.375Z,2.80
2023-06-28T03:43:05.908Z,3.05
2023-06-28T03:45:32.549Z,3.58
2023-06-28T03:47:59.146Z,3.75
2023-06-28T03:50:25.713Z,3.80
2023-06-28T03:52:52.288Z,3.63
2023-06-28T03:55:18.860Z,3.78
2023-06-28T03:57:45.442Z,3.78
2023-06-28T04:00:12.416Z,3.70
2023-06-28T04:02:40.326Z,3.47
2023-06-28T04:05:07.461Z,4.35
2023-06-28T04:07:34.108Z,3.97
2023-06-28T04:10:00.743Z,3.75
2023-06-28T04:12:27.266Z,3.10
2023-06-28T04:14:53.812Z,3.67
2023-06-28T04:17:20.742Z,4.15
2023-06-28T04:19:47.391Z,4.05
2023-06-28T04:22:13.935Z,3.75
2023-06-28T04:24:40.486Z,4.45
2023-06-28T04:27:07.099Z,3.33
2023-06-28T04:29:33.627Z,4.13
2023-06-28T04:32:01.560Z,4.20
2023-06-28T04:34:28.149Z,3.50
2023-06-28T04:37:10.530Z,4.72
2023-06-28T04:39:41.148Z,4.55
2023-06-28T04:42:07.799Z,3.17
2023-06-28T04:44:34.348Z,4.70
2023-06-28T04:47:00.902Z,4.60
2023-06-28T04:49:27.429Z,4.22
2023-06-28T04:51:53.969Z,3.80
2023-06-28T04:54:20.600Z,4.30
2023-06-28T04:56:47.176Z,4.13
2023-06-28T04:59:13.700Z,3.83
2023-06-28T05:01:40.322Z,3.90
2023-06-28T05:04:06.968Z,4.47
2023-06-28T05:06:33.535Z,4.00
2023-06-28T05:09:00.087Z,3.78
2023-06-28T05:11:26.633Z,3.72
2023-06-28T05:13:53.168Z,3.53
2023-06-28T05:16:19.832Z,3.40
2023-06-28T05:18:47.225Z,3.60
2023-06-28T05:21:13.874Z,3.08
2023-06-28T05:23:40.435Z,4.25
2023-06-28T05:26:06.989Z,3.90
2023-06-28T05:28:33.566Z,3.25
2023-06-28T05:31:00.176Z,3.97
2023-06-28T05:33:26.808Z,3.08
2023-06-28T05:35:53.395Z,3.28
2023-06-28T05:38:19.977Z,3.65
2023-06-28T05:40:46.567Z,3.65
2023-06-28T05:43:13.135Z,3.47
2023-06-28T05:45:39.733Z,3.75
2023-06-28T05:48:06.570Z,3.60
2023-06-28T05:50:33.145Z,3.65
2023-06-28T05:52:59.704Z,3.72
2023-06-28T05:55:51.781Z,3.47
2023-06-28T05:58:18.312Z,3.53
2023-06-28T06:00:45.589Z,4.45
2023-06-28T06:03:12.309Z,3.83
2023-06-28T06:05:39.085Z,3.78
2023-06-28T06:08:06.404Z,3.83
2023-06-28T06:10:33.391Z,3.55
2023-06-28T06:12:59.920Z,3.78
2023-06-28T06:15:26.476Z,3.55
2023-06-28T06:17:53.072Z,3.15
2023-06-28T06:20:19.749Z,3.60
2023-06-28T06:22:47.117Z,3.45
2023-06-28T06:25:13.719Z,4.13
2023-06-28T06:27:40.312Z,3.88
2023-06-28T06:30:07.518Z,3.40
2023-06-28T06:32:34.167Z,3.80
2023-06-28T06:35:00.752Z,3.90
2023-06-28T06:37:27.573Z,3.50
2023-06-28T06:39:54.380Z,3.53
2023-06-28T06:42:21.016Z,3.60
2023-06-28T06:44:48.991Z,3.70
2023-06-28T06:47:15.532Z,3.78
2023-06-28T06:49:42.108Z,3.88
2023-06-28T06:52:08.663Z,3.50
2023-06-28T06:54:35.320Z,3.25
2023-06-28T06:57:01.964Z,3.00
2023-06-28T06:59:30.297Z,2.63
2023-06-28T07:01:57.812Z,3.10
2023-06-28T07:04:24.812Z,2.55
2023-06-28T07:06:51.703Z,2.97
2023-06-28T07:09:19.148Z,2.60
2023-06-28T07:11:46.258Z,2.60
2023-06-28T07:14:12.839Z,2.75
2023-06-28T07:16:39.478Z,3.00
2023-06-28T07:19:06.180Z,2.60
2023-06-28T07:21:33.089Z,2.47
2023-06-28T07:23:59.757Z,2.60
2023-06-28T07:26:26.371Z,2.60
2023-06-28T07:28:53.079Z,2.67
2023-06-28T07:31:19.668Z,2.55
2023-06-28T07:33:46.305Z,2.83
2023-06-28T07:36:12.925Z,2.63
2023-06-28T07:38:39.523Z,3.03
2023-06-28T07:41:07.608Z,2.88
2023-06-28T07:43:34.530Z,2.50
2023-06-28T07:46:01.234Z,3.50
2023-06-28T07:48:27.867Z,2.78
2023-06-28T07:50:54.404Z,3.38
2023-06-28T07:53:20.950Z,2.30
2023-06-28T07:55:47.561Z,2.67
2023-06-28T07:58:14.397Z,2.70
2023-06-28T08:00:40.995Z,2.50
2023-06-28T08:03:08.546Z,2.50
2023-06-28T08:05:35.157Z,2.50
2023-06-28T08:08:01.757Z,3.05
2023-06-28T08:10:28.810Z,2.92
2023-06-28T08:12:55.518Z,2.83
2023-06-28T08:15:22.308Z,2.90
2023-06-28T08:17:49.248Z,3.00
2023-06-28T08:20:16.062Z,1.98
2023-06-28T08:22:42.694Z,2.50
2023-06-28T08:25:09.616Z,2.20
2023-06-28T08:27:37.272Z,1.85
2023-06-28T08:30:04.612Z,2.22
2023-06-28T08:32:33.101Z,1.80
2023-06-28T08:34:59.744Z,2.58
2023-06-28T08:37:26.531Z,1.90
2023-06-28T08:39:53.198Z,2.15
2023-06-28T08:42:20.310Z,2.20
2023-06-28T08:44:49.863Z,2.20
2023-06-28T08:47:19.559Z,1.90
2023-06-28T08:49:46.500Z,2.10
2023-06-28T08:52:16.125Z,1.70
2023-06-28T08:54:44.077Z,1.70
2023-06-28T08:57:12.829Z,2.25
2023-06-28T08:59:40.675Z,2.20
2023-06-28T09:02:10.073Z,1.70
2023-06-28T09:04:37.265Z,2.20
2023-06-28T09:07:04.347Z,1.90
2023-06-28T09:09:31.877Z,1.98
2023-06-28T09:11:59.222Z,1.90
2023-06-28T09:14:26.094Z,2.30
2023-06-28T09:16:52.763Z,2.20
2023-06-28T09:19:19.328Z,2.13
2023-06-28T09:21:45.953Z,2.00
2023-06-28T09:24:13.255Z,2.30
2023-06-28T09:26:42.878Z,2.50
2023-06-28T09:29:12.416Z,2.53
2023-06-28T09:31:43.100Z,2.63
2023-06-28T09:34:10.112Z,2.20
2023-06-28T09:36:37.107Z,2.35
2023-06-28T09:39:04.655Z,2.38
2023-06-28T09:41:41.924Z,3.08
2023-06-28T09:44:09.386Z,2.30
2023-06-28T09:46:36.288Z,2.40
2023-06-28T09:49:02.899Z,2.60
2023-06-28T09:51:29.443Z,2.40
2023-06-28T09:53:56.161Z,2.00
2023-06-28T09:56:36.025Z,2.25
2023-06-28T09:59:14.822Z,2.15
2023-06-28T10:01:45.542Z,1.90
2023-06-28T10:04:13.885Z,2.10
2023-06-28T10:06:44.089Z,1.95
2023-06-28T10:09:13.054Z,1.92
2023-06-28T10:11:40.678Z,1.80
2023-06-28T10:14:08.365Z,1.83
2023-06-28T10:16:36.366Z,2.08
2023-06-28T10:19:03.181Z,1.90
2023-06-28T10:21:30.933Z,1.98
2023-06-28T10:23:59.509Z,1.77
2023-06-28T10:26:29.232Z,1.80
2023-06-28T10:28:56.923Z,2.28
2023-06-28T10:31:24.521Z,1.63
2023-06-28T10:33:51.901Z,2.17
2023-06-28T10:36:18.519Z,2.03
2023-06-28T10:38:45.175Z,2.00
2023-06-28T10:41:16.127Z,2.00
2023-06-28T10:43:43.508Z,1.80
2023-06-28T10:46:24.268Z,1.80
2023-06-28T10:48:57.855Z,2.40
2023-06-28T10:51:34.796Z,1.92
2023-06-28T10:54:08.093Z,1.98
2023-06-28T10:56:44.826Z,1.88
2023-06-28T10:59:11.370Z,1.80
2023-06-28T11:01:55.134Z,1.90
2023-06-28T11:04:24.586Z,2.10
2023-06-28T11:07:03.705Z,1.60
2023-06-28T11:09:30.789Z,2.13
2023-06-28T11:11:58.721Z,2.00
2023-06-28T11:14:28.121Z,2.03
2023-06-28T11:19:28.097Z,1.73
2023-06-28T11:21:59.014Z,1.63
2023-06-28T11:24:41.484Z,1.90
2023-06-28T11:27:13.371Z,2.60
2023-06-28T11:30:00.415Z,2.35
2023-06-28T11:32:29.328Z,1.85
2023-06-28T11:34:58.166Z,2.08
2023-06-28T11:37:25.253Z,2.13
2023-06-28T11:39:52.326Z,1.80
2023-06-28T11:42:19.795Z,2.00
2023-06-28T11:44:50.699Z,1.85
2023-06-28T11:47:21.961Z,1.95
2023-06-28T11:49:50.567Z,1.88
2023-06-28T11:52:20.338Z,1.90
2023-06-28T11:54:47.149Z,1.67
2023-06-28T11:57:13.802Z,1.98
2023-06-28T11:59:50.298Z,1.75
2023-06-28T12:02:18.910Z,1.60
2023-06-28T12:04:56.585Z,1.88
2023-06-28T12:07:23.503Z,2.35
2023-06-28T12:09:58.143Z,2.03
2023-06-28T12:12:36.458Z,2.10
2023-06-28T12:15:06.802Z,2.13
2023-06-28T12:17:41.092Z,2.20
2023-06-28T12:20:09.512Z,2.15
2023-06-28T12:22:43.592Z,2.03
2023-06-28T12:25:10.895Z,2.22
2023-06-28T12:27:39.744Z,1.90
2023-06-28T12:30:13.049Z,1.90
2023-06-28T12:32:43.792Z,2.33
2023-06-28T12:35:21.684Z,2.05
2023-06-28T12:37:57.305Z,1.90
2023-06-28T12:40:28.138Z,1.80
2023-06-28T12:43:33.484Z,1.90
2023-06-28T12:46:00.036Z,2.17
2023-06-28T12:48:26.634Z,2.00
2023-06-28T12:50:53.916Z,1.88
2023-06-28T12:53:20.472Z,2.28
2023-06-28T12:55:47.165Z,2.30
2023-06-28T12:58:13.800Z,1.95
2023-06-28T13:00:40.693Z,1.60
2023-06-28T13:03:08.347Z,1.88
2023-06-28T13:05:35.368Z,1.83
2023-06-28T13:08:03.398Z,1.40
2023-06-28T13:10:30.521Z,1.83
2023-06-28T13:12:57.506Z,1.92
2023-06-28T13:15:24.123Z,1.70
2023-06-28T13:17:50.759Z,1.65
2023-06-28T13:20:17.418Z,2.20
2023-06-28T13:22:46.760Z,1.80
2023-06-28T13:25:13.401Z,2.10
2023-06-28T13:27:40.102Z,1.73
2023-06-28T13:30:07.403Z,2.28
2023-06-28T13:32:33.988Z,2.13
2023-06-28T13:35:03.094Z,1.80
2023-06-28T13:40:08.896Z,1.70
2023-06-28T13:42:39.586Z,1.52
2023-06-28T13:45:06.776Z,1.65
2023-06-28T13:47:33.520Z,1.80
2023-06-28T13:50:06.542Z,2.17
2023-06-28T13:52:33.176Z,1.52
2023-06-28T13:55:03.055Z,1.85
2023-06-28T13:57:29.695Z,2.00
2023-06-28T13:59:57.953Z,1.88
2023-06-28T14:02:26.457Z,1.65
2023-06-28T14:04:55.751Z,1.55
2023-06-28T14:07:22.811Z,1.52
2023-06-28T14:09:49.469Z,1.77
2023-06-28T14:12:16.247Z,1.65
2023-06-28T14:14:45.864Z,1.67
2023-06-28T14:17:12.431Z,1.88
2023-06-28T14:19:44.164Z,1.98
2023-06-28T14:22:13.669Z,2.65
2023-06-28T14:24:40.635Z,2.08
2023-06-28T14:27:07.399Z,1.80
2023-06-28T14:29:34.042Z,2.40
2023-06-28T14:32:00.569Z,1.85
2023-06-28T14:34:27.112Z,2.05
2023-06-28T14:36:53.667Z,1.92
2023-06-28T14:39:20.251Z,2.45
2023-06-28T14:41:46.826Z,2.30
2023-06-28T14:44:16.312Z,1.88
2023-06-28T14:46:42.988Z,1.90
2023-06-28T14:49:09.611Z,2.22
2023-06-28T14:51:36.258Z,1.92
2023-06-28T14:54:05.751Z,2.40
2023-06-28T14:56:32.387Z,2.50
2023-06-28T14:58:58.975Z,2.08
2023-06-28T15:01:25.562Z,2.20
2023-06-28T15:03:52.221Z,2.20
2023-06-28T15:06:18.893Z,2.28
2023-06-28T15:08:45.554Z,2.38
2023-06-28T15:11:12.112Z,2.03
2023-06-28T15:13:38.639Z,2.33
2023-06-28T15:16:05.583Z,2.35
2023-06-28T15:18:32.710Z,2.10
2023-06-28T15:20:59.241Z,2.40
2023-06-28T15:23:25.817Z,2.17
2023-06-28T15:25:52.543Z,2.55
2023-06-28T15:28:19.224Z,2.13
2023-06-28T15:30:45.742Z,2.40
2023-06-28T15:33:12.831Z,2.40
2023-06-28T15:35:39.556Z,2.55
2023-06-28T15:38:06.203Z,2.60
2023-06-28T15:40:32.771Z,2.40
2023-06-28T15:42:59.892Z,2.60
2023-06-28T15:45:27.565Z,3.20
2023-06-28T15:47:54.531Z,3.05
2023-06-28T15:50:21.819Z,8.43
2023-06-28T15:52:49.956Z,3.10
2023-06-28T15:55:23.510Z,3.08
2023-06-28T15:57:50.086Z,3.17
2023-06-28T16:00:17.185Z,3.13
2023-06-28T16:02:43.915Z,2.90
2023-06-28T16:05:10.610Z,3.20
2023-06-28T16:07:37.240Z,3.15
2023-06-28T16:10:04.076Z,3.13
2023-06-28T16:12:30.630Z,3.13
2023-06-28T16:14:57.148Z,3.63
2023-06-28T16:17:24.576Z,3.33
2023-06-28T16:19:51.680Z,3.45
2023-06-28T16:22:19.367Z,3.58
2023-06-28T16:24:46.110Z,2.85
2023-06-28T16:27:19.985Z,3.17
2023-06-28T16:29:47.455Z,3.15
2023-06-28T16:32:14.311Z,2.80
2023-06-28T16:34:42.630Z,2.72
2023-06-28T16:37:10.021Z,3.30
2023-06-28T16:39:36.668Z,3.10
2023-06-28T16:42:05.535Z,3.00
2023-06-28T16:44:32.906Z,3.25
2023-06-28T16:46:59.836Z,2.67
2023-06-28T16:49:26.415Z,2.83
2023-06-28T16:51:53.094Z,3.33
2023-06-28T16:54:19.687Z,3.22
2023-06-28T16:56:46.214Z,3.08
2023-06-28T16:59:12.792Z,3.10
2023-06-28T17:01:39.378Z,3.42
2023-06-28T17:04:05.936Z,3.38
2023-06-28T17:06:32.504Z,3.08
2023-06-28T17:09:02.056Z,2.80
2023-06-28T17:11:30.831Z,3.08
2023-06-28T17:13:58.951Z,3.10
2023-06-28T17:16:25.611Z,3.05
2023-06-28T17:18:53.304Z,3.33
2023-06-28T17:21:19.862Z,2.78
2023-06-28T17:23:46.466Z,3.15
2023-06-28T17:26:13.126Z,3.25
2023-06-28T17:28:39.721Z,3.25
2023-06-28T17:31:06.283Z,2.97
2023-06-28T17:33:32.967Z,2.80
2023-06-28T17:35:59.672Z,2.70
2023-06-28T17:38:26.365Z,3.03
2023-06-28T17:40:53.008Z,3.45
2023-06-28T17:43:19.655Z,3.20
2023-06-28T17:45:46.222Z,3.28
2023-06-28T17:48:12.890Z,2.80
2023-06-28T17:50:39.472Z,3.15
2023-06-28T17:53:06.033Z,2.85
2023-06-28T17:55:32.651Z,3.35
2023-06-28T17:57:59.183Z,3.38
2023-06-28T18:00:25.752Z,3.33
2023-06-28T18:02:52.420Z,4.10
2023-06-28T18:05:19.069Z,3.80
2023-06-28T18:07:45.691Z,4.22
2023-06-28T18:10:12.341Z,4.13
2023-06-28T18:12:39.193Z,4.38
2023-06-28T18:15:06.753Z,4.15
2023-06-28T18:17:33.389Z,3.70
2023-06-28T18:19:59.999Z,4.25
2023-06-28T18:22:26.569Z,4.18
2023-06-28T18:24:53.158Z,4.05
2023-06-28T18:27:19.731Z,4.20
2023-06-28T18:29:46.306Z,4.05
2023-06-28T18:32:12.885Z,4.75
2023-06-28T18:34:39.399Z,5.25
2023-06-28T18:37:06.099Z,4.85
2023-06-28T18:39:32.762Z,5.57
2023-06-28T18:41:59.323Z,5.03
2023-06-28T18:44:25.850Z,5.07
2023-06-28T18:46:52.412Z,4.85
2023-06-28T18:49:19.048Z,5.85
2023-06-28T18:51:45.620Z,5.90
2023-06-28T18:54:12.310Z,4.88
2023-06-28T18:56:38.842Z,5.35
2023-06-28T18:59:06.771Z,5.47
2023-06-28T19:01:35.119Z,5.43
2023-06-28T19:04:01.725Z,4.65
2023-06-28T19:06:28.321Z,5.75
2023-06-28T19:08:54.887Z,5.75
2023-06-28T19:11:21.463Z,5.72
2023-06-28T19:13:48.042Z,5.47
2023-06-28T19:16:14.759Z,6.28
2023-06-28T19:18:41.398Z,5.35
2023-06-28T19:21:11.684Z,4.80
2023-06-28T19:23:38.677Z,5.47
2023-06-28T19:26:05.272Z,5.05
2023-06-28T19:28:31.794Z,5.43
2023-06-28T19:30:58.406Z,5.20
2023-06-28T19:33:24.967Z,4.72
2023-06-28T19:35:51.584Z,4.82
2023-06-28T19:38:18.307Z,4.72
2023-06-28T19:40:45.094Z,4.97
2023-06-28T19:43:11.870Z,5.60
2023-06-28T19:45:38.453Z,5.15
2023-06-28T19:48:05.089Z,5.90
2023-06-28T19:51:12.764Z,5.85
2023-06-28T19:53:39.292Z,5.20
2023-06-28T19:56:10.416Z,5.47
2023-06-28T19:58:37.579Z,5.65
2023-06-28T20:01:05.305Z,5.53
2023-06-28T20:03:33.173Z,5.20
2023-06-28T20:05:59.784Z,5.30
2023-06-28T20:08:26.401Z,5.10
2023-06-28T20:10:53.001Z,5.47
2023-06-28T20:13:19.548Z,5.15
2023-06-28T20:15:46.188Z,5.30
2023-06-28T20:18:12.860Z,4.78
2023-06-28T20:20:39.467Z,5.53
2023-06-28T20:23:06.176Z,5.53
2023-06-28T20:25:32.750Z,5.38
2023-06-28T20:27:59.451Z,5.65
2023-06-28T20:30:26.064Z,5.43
2023-06-28T20:32:52.655Z,5.82
2023-06-28T20:35:19.251Z,5.88
2023-06-28T20:37:45.816Z,5.25
2023-06-28T20:40:13.509Z,6.22
2023-06-28T20:42:42.311Z,5.68
2023-06-28T20:45:09.185Z,6.10
2023-06-28T20:47:35.836Z,6.18
2023-06-28T20:50:02.466Z,5.03
2023-06-28T20:52:32.201Z,5.20
2023-06-28T20:54:58.735Z,5.10
2023-06-28T20:57:25.312Z,5.35
2023-06-28T20:59:51.997Z,5.35
2023-06-28T21:02:18.532Z,5.40
2023-06-28T21:04:45.226Z,5.60
2023-06-28T21:07:12.007Z,5.60
2023-06-28T21:09:42.760Z,5.15
2023-06-28T21:12:10.139Z,5.55
2023-06-28T21:14:36.743Z,5.57
2023-06-28T21:17:03.654Z,5.70
2023-06-28T21:19:30.196Z,5.10
2023-06-28T21:21:56.944Z,5.20
2023-06-28T21:24:23.494Z,5.35
2023-06-28T21:26:50.035Z,6.22
2023-06-28T21:29:16.587Z,5.22
2023-06-28T21:31:47.593Z,5.25
2023-06-28T21:34:14.386Z,5.10
2023-06-28T21:36:46.439Z,5.45
2023-06-28T21:39:13.245Z,5.97
2023-06-28T21:41:39.813Z,5.97
2023-06-28T21:44:06.388Z,5.22
2023-06-28T21:46:33.036Z,5.60
2023-06-28T21:48:59.624Z,5.63
2023-06-28T21:51:26.347Z,5.50
2023-06-28T21:53:53.219Z,5.47
2023-06-28T21:56:19.799Z,5.75
2023-06-28T21:58:46.475Z,5.03
2023-06-28T22:01:13.150Z,6.13
2023-06-28T22:03:39.707Z,5.50
2023-06-28T22:06:06.256Z,4.95
2023-06-28T22:08:32.914Z,6.10
2023-06-28T22:10:59.573Z,6.05
2023-06-28T22:13:26.117Z,5.40
2023-06-28T22:15:52.735Z,5.63
2023-06-28T22:18:19.423Z,6.35
2023-06-28T22:20:46.056Z,5.40
2023-06-28T22:23:12.651Z,5.43
2023-06-28T22:25:41.163Z,5.53
2023-06-28T22:28:08.116Z,5.85
2023-06-28T22:30:42.290Z,5.75
2023-06-28T22:33:08.951Z,5.45
2023-06-28T22:35:35.499Z,6.18
2023-06-28T22:38:02.034Z,5.85
2023-06-28T22:40:28.605Z,5.80
2023-06-28T22:42:55.171Z,5.43
2023-06-28T22:45:22.687Z,5.20
2023-06-28T22:47:49.329Z,5.20
2023-06-28T22:50:15.862Z,5.63
2023-06-28T22:52:42.640Z,5.65
2023-06-28T22:55:09.737Z,6.00
2023-06-28T22:57:36.528Z,6.13
2023-06-28T23:00:03.481Z,6.07
2023-06-28T23:02:30.094Z,5.47
2023-06-28T23:04:56.661Z,6.10
2023-06-28T23:07:23.424Z,7.00
2023-06-28T23:09:50.208Z,6.55
2023-06-28T23:12:16.748Z,5.55
2023-06-28T23:14:43.250Z,6.25
2023-06-28T23:17:09.818Z,5.88
2023-06-28T23:19:36.383Z,6.55
2023-06-28T23:22:03.063Z,6.13
2023-06-28T23:24:29.591Z,6.53
2023-06-28T23:26:56.766Z,6.22
2023-06-28T23:29:23.326Z,5.93
2023-06-28T23:31:49.940Z,6.00
2023-06-28T23:34:16.614Z,6.55
2023-06-28T23:36:43.155Z,5.65
2023-06-28T23:39:09.695Z,6.10
2023-06-28T23:41:36.400Z,6.63
2023-06-28T23:44:02.946Z,6.72
2023-06-28T23:46:29.456Z,6.00
2023-06-28T23:48:56.024Z,6.97
2023-06-28T23:51:22.572Z,6.15
2023-06-28T23:53:49.160Z,5.85
2023-06-28T23:56:15.742Z,6.57
2023-06-28T23:58:42.311Z,6.53
